createdAt,value
2022-09-21T00:01:24.532Z,98.50
2022-09-21T00:03:56.745Z,98.70
2022-09-21T00:06:25.452Z,98.50
2022-09-21T00:08:52.808Z,98.70
2022-09-21T00:11:25.013Z,98.70
2022-09-21T00:13:55.348Z,98.40
2022-09-21T00:16:22.688Z,98.90
2022-09-21T00:18:49.747Z,98.50
2022-09-21T00:21:17.258Z,98.50
2022-09-21T00:23:44.707Z,98.60
2022-09-21T00:26:17.413Z,98.50
2022-09-21T00:28:44.748Z,98.70
2022-09-21T00:31:14.437Z,98.40
2022-09-21T00:33:43.622Z,98.80
2022-09-21T00:36:13.780Z,98.80
2022-09-21T00:38:40.894Z,98.60
2022-09-21T00:41:09.560Z,98.40
2022-09-21T00:44:23.414Z,98.80
2022-09-21T00:46:53.740Z,98.50
2022-09-21T00:49:21.307Z,98.60
2022-09-21T00:51:49.611Z,99.20
2022-09-21T00:54:30.650Z,98.60
2022-09-21T00:57:01.396Z,98.80
2022-09-21T00:59:30.437Z,98.80
2022-09-21T01:01:58.687Z,98.80
2022-09-21T01:04:28.357Z,98.80
2022-09-21T01:06:56.912Z,98.90
2022-09-21T01:09:23.927Z,98.70
2022-09-21T01:11:59.751Z,98.70
2022-09-21T01:14:53.249Z,98.90
2022-09-21T01:17:35.230Z,99.20
2022-09-21T01:20:20.740Z,99.00
2022-09-21T01:23:20.902Z,99.20
2022-09-21T01:26:16.743Z,99.30
2022-09-21T01:29:06.919Z,99.20
2022-09-21T01:31:44.379Z,99.40
2022-09-21T01:34:19.810Z,99.40
2022-09-21T01:36:49.548Z,99.30
2022-09-21T01:39:19.067Z,99.20
2022-09-21T01:41:47.899Z,99.10
2022-09-21T01:44:22.750Z,99.30
2022-09-21T01:46:50.577Z,99.40
2022-09-21T01:49:23.501Z,99.50
2022-09-21T01:51:58.748Z,99.20
2022-09-21T01:54:36.353Z,99.30
2022-09-21T01:57:07.569Z,99.30
2022-09-21T02:00:00.133Z,99.30
2022-09-21T02:02:43.023Z,99.70
2022-09-21T02:05:12.406Z,99.40
2022-09-21T02:07:39.804Z,99.50
2022-09-21T02:10:13.552Z,99.50
2022-09-21T02:12:40.478Z,99.70
2022-09-21T02:15:08.156Z,99.90
2022-09-21T02:18:02.659Z,99.90
2022-09-21T02:20:36.626Z,99.70
2022-09-21T02:23:38.010Z,99.80
2022-09-21T02:26:13.393Z,99.80
2022-09-21T02:28:56.404Z,99.90
2022-09-21T02:31:36.131Z,99.90
2022-09-21T02:34:29.839Z,99.90
2022-09-21T02:37:01.373Z,99.90
2022-09-21T02:39:53.770Z,99.90
2022-09-21T02:42:28.182Z,99.90
2022-09-21T02:45:07.511Z,99.90
2022-09-21T02:47:42.424Z,99.90
2022-09-21T02:50:39.210Z,99.90
2022-09-21T02:53:08.489Z,99.90
2022-09-21T02:55:36.967Z,99.90
2022-09-21T02:58:07.919Z,99.90
2022-09-21T03:00:35.914Z,99.90
2022-09-21T03:03:17.292Z,99.90
2022-09-21T03:05:49.126Z,99.90
2022-09-21T03:08:19.295Z,99.90
2022-09-21T03:10:46.874Z,99.90
2022-09-21T03:13:13.907Z,99.90
2022-09-21T03:15:41.347Z,99.90
2022-09-21T03:18:10.527Z,99.90
2022-09-21T03:20:38.844Z,99.90
2022-09-21T03:23:06.010Z,99.90
2022-09-21T03:25:33.379Z,99.90
2022-09-21T03:28:01.321Z,99.90
2022-09-21T03:30:29.354Z,99.90
2022-09-21T03:32:56.427Z,99.90
2022-09-21T03:35:26.581Z,99.90
2022-09-21T03:37:55.075Z,99.90
2022-09-21T03:40:22.562Z,99.90
2022-09-21T03:42:49.400Z,99.90
2022-09-21T03:45:16.535Z,99.90
2022-09-21T03:47:43.425Z,99.90
2022-09-21T03:50:10.857Z,99.90
2022-09-21T03:52:38.549Z,99.90
2022-09-21T03:55:07.019Z,99.90
2022-09-21T03:57:35.031Z,99.90
2022-09-21T04:00:09.265Z,99.90
2022-09-21T04:02:37.548Z,99.90
2022-09-21T04:05:04.819Z,99.90
2022-09-21T04:07:34.519Z,99.90
2022-09-21T04:10:02.033Z,99.90
2022-09-21T04:12:29.383Z,99.90
2022-09-21T04:14:56.228Z,99.90
2022-09-21T04:17:23.050Z,99.90
2022-09-21T04:19:49.856Z,99.90
2022-09-21T04:22:17.020Z,99.90
2022-09-21T04:24:43.820Z,99.90
2022-09-21T04:27:11.630Z,99.90
2022-09-21T04:29:39.121Z,99.90
2022-09-21T04:32:06.334Z,99.90
2022-09-21T04:34:33.125Z,99.90
2022-09-21T04:37:00.172Z,99.90
2022-09-21T04:39:27.013Z,99.90
2022-09-21T04:41:53.811Z,99.90
2022-09-21T04:44:20.667Z,99.90
2022-09-21T04:46:47.545Z,99.90
2022-09-21T04:49:14.346Z,99.90
2022-09-21T04:51:41.216Z,99.90
2022-09-21T04:54:08.051Z,99.90
2022-09-21T04:56:35.250Z,99.90
2022-09-21T04:59:02.063Z,99.90
2022-09-21T05:01:28.951Z,99.90
2022-09-21T05:03:58.760Z,99.90
2022-09-21T05:06:25.628Z,99.90
2022-09-21T05:09:10.962Z,99.90
2022-09-21T05:11:39.123Z,99.90
2022-09-21T05:14:06.072Z,99.90
2022-09-21T05:16:33.041Z,99.90
2022-09-21T05:18:59.832Z,99.90
2022-09-21T05:21:26.735Z,99.90
2022-09-21T05:23:53.715Z,99.90
2022-09-21T05:26:20.858Z,99.90
2022-09-21T05:28:47.959Z,99.90
2022-09-21T05:31:18.450Z,99.90
2022-09-21T05:33:52.691Z,99.90
2022-09-21T05:36:40.875Z,99.90
2022-09-21T05:39:08.176Z,99.90
2022-09-21T05:41:35.309Z,99.90
2022-09-21T05:44:02.359Z,99.90
2022-09-21T05:46:56.187Z,99.90
2022-09-21T05:49:31.176Z,99.90
2022-09-21T05:52:18.681Z,99.90
2022-09-21T05:55:04.077Z,99.90
2022-09-21T05:57:43.405Z,99.90
2022-09-21T06:00:19.022Z,99.90
2022-09-21T06:03:05.843Z,99.90
2022-09-21T06:05:32.696Z,99.90
2022-09-21T06:07:59.506Z,99.90
2022-09-21T06:10:28.682Z,99.90
2022-09-21T06:12:55.515Z,99.90
2022-09-21T06:15:22.298Z,99.90
2022-09-21T06:17:49.103Z,99.90
2022-09-21T06:20:15.942Z,99.90
2022-09-21T06:22:42.755Z,99.90
2022-09-21T06:25:10.124Z,99.90
2022-09-21T06:27:36.930Z,99.90
2022-09-21T06:30:04.026Z,99.90
2022-09-21T06:32:31.323Z,99.90
2022-09-21T06:34:58.127Z,99.90
2022-09-21T06:37:24.984Z,99.90
2022-09-21T06:39:51.773Z,99.90
2022-09-21T06:42:18.547Z,99.90
2022-09-21T06:44:45.387Z,99.90
2022-09-21T06:47:12.162Z,99.90
2022-09-21T06:49:42.385Z,99.90
2022-09-21T06:52:09.540Z,99.90
2022-09-21T06:54:36.925Z,99.90
2022-09-21T06:57:03.927Z,99.90
2022-09-21T06:59:31.098Z,99.90
2022-09-21T07:01:58.761Z,99.90
2022-09-21T07:04:25.728Z,99.90
2022-09-21T07:06:52.581Z,99.90
2022-09-21T07:12:08.143Z,99.90
2022-09-21T07:14:35.092Z,99.90
2022-09-21T07:17:02.429Z,99.90
2022-09-21T07:19:29.241Z,99.90
2022-09-21T07:21:56.247Z,99.90
2022-09-21T07:24:23.063Z,99.90
2022-09-21T07:26:50.025Z,99.90
2022-09-21T07:29:16.810Z,99.90
2022-09-21T07:31:45.173Z,99.90
2022-09-21T07:34:12.306Z,99.90
2022-09-21T07:36:39.215Z,99.90
2022-09-21T07:39:06.422Z,99.90
2022-09-21T07:41:33.321Z,99.90
2022-09-21T07:44:00.173Z,99.90
2022-09-21T07:46:27.002Z,99.90
2022-09-21T07:48:54.983Z,99.90
2022-09-21T07:51:24.310Z,99.90
2022-09-21T07:53:59.135Z,99.90
2022-09-21T07:56:26.435Z,99.90
2022-09-21T07:59:08.571Z,99.90
2022-09-21T08:01:37.887Z,99.90
2022-09-21T08:04:08.509Z,99.90
2022-09-21T08:06:39.929Z,99.90
2022-09-21T08:09:07.171Z,99.90
2022-09-21T08:11:34.076Z,99.90
2022-09-21T08:14:02.922Z,99.90
2022-09-21T08:16:31.200Z,99.90
2022-09-21T08:18:58.375Z,99.90
2022-09-21T08:21:25.350Z,99.70
2022-09-21T08:23:52.151Z,99.20
2022-09-21T08:26:34.742Z,99.40
2022-09-21T08:29:04.587Z,99.50
2022-09-21T08:31:31.598Z,99.40
2022-09-21T08:33:58.478Z,99.30
2022-09-21T08:36:25.541Z,99.70
2022-09-21T08:38:52.560Z,99.40
2022-09-21T08:41:42.162Z,99.70
2022-09-21T08:44:26.214Z,99.50
2022-09-21T08:47:17.387Z,99.40
2022-09-21T08:49:51.377Z,98.90
2022-09-21T08:52:21.728Z,98.50
2022-09-21T08:54:51.554Z,98.60
2022-09-21T08:57:20.013Z,98.30
2022-09-21T08:59:48.603Z,98.30
2022-09-21T09:02:33.900Z,98.10
2022-09-21T09:05:16.183Z,98.20
2022-09-21T09:07:52.515Z,97.80
2022-09-21T09:10:57.534Z,97.90
2022-09-21T09:13:27.323Z,97.80
2022-09-21T09:16:09.219Z,97.70
2022-09-21T09:19:03.016Z,98.20
2022-09-21T09:21:39.144Z,97.40
2022-09-21T09:24:33.759Z,97.90
2022-09-21T09:27:15.303Z,97.10
2022-09-21T09:29:51.376Z,97.20
2022-09-21T09:32:19.010Z,96.90
2022-09-21T09:34:53.831Z,97.00
2022-09-21T09:37:27.628Z,97.00
2022-09-21T09:39:57.851Z,96.90
2022-09-21T09:42:46.457Z,97.20
2022-09-21T09:45:23.505Z,97.10
2022-09-21T09:48:19.508Z,96.50
2022-09-21T09:50:46.615Z,96.50
2022-09-21T09:53:19.710Z,96.60
2022-09-21T09:55:50.098Z,96.20
2022-09-21T09:58:19.643Z,96.80
2022-09-21T10:00:50.877Z,96.60
2022-09-21T10:03:26.376Z,95.80
2022-09-21T10:05:53.623Z,95.60
2022-09-21T10:08:30.671Z,95.70
2022-09-21T10:10:57.857Z,95.50
2022-09-21T10:13:30.616Z,95.80
2022-09-21T10:16:00.539Z,95.30
2022-09-21T10:18:56.471Z,95.00
2022-09-21T10:21:32.909Z,94.90
2022-09-21T10:24:06.419Z,94.80
2022-09-21T10:26:40.206Z,94.60
2022-09-21T10:29:33.252Z,94.30
2022-09-21T10:32:05.107Z,94.10
2022-09-21T10:34:35.024Z,93.90
2022-09-21T10:37:23.004Z,94.60
2022-09-21T10:39:49.804Z,94.70
2022-09-21T10:42:19.145Z,94.50
2022-09-21T10:44:48.964Z,94.40
2022-09-21T10:47:36.463Z,94.10
2022-09-21T10:50:22.165Z,93.90
2022-09-21T10:52:50.346Z,94.40
2022-09-21T10:55:19.638Z,94.50
2022-09-21T10:57:47.893Z,93.60
2022-09-21T11:00:31.845Z,94.20
2022-09-21T11:03:01.341Z,93.80
2022-09-21T11:05:32.903Z,93.50
2022-09-21T11:08:16.655Z,94.40
2022-09-21T11:10:50.158Z,94.30
2022-09-21T11:13:39.047Z,93.40
2022-09-21T11:16:35.210Z,93.30
2022-09-21T11:19:39.347Z,93.90
2022-09-21T11:22:16.840Z,93.90
2022-09-21T11:24:57.773Z,93.10
2022-09-21T11:27:36.358Z,93.60
2022-09-21T11:30:23.623Z,93.30
2022-09-21T11:33:19.031Z,93.20
2022-09-21T11:35:45.852Z,92.50
2022-09-21T11:38:39.850Z,92.70
2022-09-21T11:41:36.062Z,93.00
2022-09-21T11:44:31.190Z,92.40
2022-09-21T11:47:17.207Z,92.20
2022-09-21T11:50:29.306Z,91.60
2022-09-21T11:52:59.599Z,92.00
2022-09-21T11:55:44.555Z,92.30
2022-09-21T11:58:33.447Z,92.70
2022-09-21T12:01:19.198Z,91.50
2022-09-21T12:03:49.176Z,91.40
2022-09-21T12:06:43.396Z,91.10
2022-09-21T12:09:47.998Z,91.10
2022-09-21T12:12:28.256Z,90.80
2022-09-21T12:15:14.147Z,90.50
2022-09-21T12:18:07.837Z,91.40
2022-09-21T12:20:34.570Z,90.80
2022-09-21T12:23:14.436Z,91.10
2022-09-21T12:25:47.025Z,90.70
2022-09-21T12:29:00.810Z,90.50
2022-09-21T12:31:42.798Z,90.30
2022-09-21T12:34:30.383Z,90.00
2022-09-21T12:37:35.280Z,89.80
2022-09-21T12:40:28.001Z,88.70
2022-09-21T12:43:16.329Z,89.70
2022-09-21T12:45:51.349Z,90.20
2022-09-21T12:48:24.328Z,90.10
2022-09-21T12:51:06.466Z,88.60
2022-09-21T12:53:38.383Z,89.90
2022-09-21T12:56:29.530Z,89.30
2022-09-21T12:59:34.536Z,90.10
2022-09-21T13:02:17.541Z,87.60
2022-09-21T13:04:48.343Z,87.30
2022-09-21T13:07:33.042Z,87.20
2022-09-21T13:10:28.981Z,87.60
2022-09-21T13:13:01.918Z,87.80
2022-09-21T13:15:33.342Z,87.80
2022-09-21T13:18:17.956Z,87.00
2022-09-21T13:20:45.585Z,86.60
2022-09-21T13:23:26.860Z,86.70
2022-09-21T13:26:08.716Z,85.60
2022-09-21T13:28:50.649Z,86.20
2022-09-21T13:31:37.148Z,86.80
2022-09-21T13:34:19.931Z,87.50
2022-09-21T13:37:11.171Z,87.80
2022-09-21T13:39:43.332Z,86.60
2022-09-21T13:42:34.981Z,87.40
2022-09-21T13:45:05.193Z,87.00
2022-09-21T13:47:33.312Z,86.30
2022-09-21T13:50:04.597Z,87.10
2022-09-21T13:52:43.114Z,86.80
2022-09-21T13:55:32.062Z,84.30
2022-09-21T13:58:21.110Z,83.60
2022-09-21T14:00:59.861Z,82.30
2022-09-21T14:03:40.003Z,81.60
2022-09-21T14:06:16.670Z,82.20
2022-09-21T14:08:53.036Z,82.00
2022-09-21T14:11:45.117Z,82.10
2022-09-21T14:14:14.605Z,82.80
2022-09-21T14:16:47.741Z,84.10
2022-09-21T14:19:17.386Z,84.20
2022-09-21T14:22:06.442Z,84.20
2022-09-21T14:24:44.010Z,84.40
2022-09-21T14:27:33.268Z,83.90
2022-09-21T14:30:08.170Z,83.30
2022-09-21T14:32:42.605Z,82.90
2022-09-21T14:35:33.720Z,82.50
2022-09-21T14:38:13.577Z,82.80
2022-09-21T14:40:48.488Z,83.00
2022-09-21T14:43:28.157Z,83.40
2022-09-21T14:46:40.549Z,84.40
2022-09-21T14:49:28.428Z,83.70
2022-09-21T14:52:27.895Z,83.00
2022-09-21T14:55:32.343Z,82.50
2022-09-21T14:58:19.139Z,82.70
2022-09-21T15:00:53.416Z,83.70
2022-09-21T15:03:30.729Z,82.90
2022-09-21T15:06:40.895Z,82.50
2022-09-21T15:09:54.406Z,82.40
2022-09-21T15:12:28.853Z,83.10
2022-09-21T15:15:20.393Z,82.90
2022-09-21T15:17:59.773Z,82.90
2022-09-21T15:20:29.649Z,82.80
2022-09-21T15:22:58.495Z,82.90
2022-09-21T15:25:28.973Z,82.50
2022-09-21T15:27:55.882Z,82.50
2022-09-21T15:30:27.005Z,82.90
2022-09-21T15:32:58.999Z,81.90
2022-09-21T15:35:28.201Z,81.90
2022-09-21T15:37:56.680Z,81.90
2022-09-21T15:40:35.535Z,82.60
2022-09-21T15:43:05.754Z,82.50
2022-09-21T15:45:58.147Z,83.00
2022-09-21T15:48:36.529Z,82.60
2022-09-21T15:51:25.183Z,82.60
2022-09-21T15:54:16.102Z,82.90
2022-09-21T15:56:44.449Z,83.40
2022-09-21T15:59:18.180Z,83.40
2022-09-21T16:01:48.533Z,83.40
2022-09-21T16:04:22.126Z,84.30
2022-09-21T16:07:04.199Z,82.60
2022-09-21T16:09:38.478Z,82.80
2022-09-21T16:12:27.147Z,82.30
2022-09-21T16:14:54.283Z,82.30
2022-09-21T16:17:29.257Z,82.30
2022-09-21T16:19:56.725Z,82.70
2022-09-21T16:22:31.154Z,82.50
2022-09-21T16:25:00.331Z,82.70
2022-09-21T16:27:32.428Z,82.80
2022-09-21T16:30:01.181Z,83.10
2022-09-21T16:32:32.050Z,82.50
2022-09-21T16:35:17.771Z,82.40
2022-09-21T16:37:44.636Z,82.10
2022-09-21T16:40:11.886Z,82.80
2022-09-21T16:42:39.338Z,82.20
2022-09-21T16:45:16.657Z,81.60
2022-09-21T16:47:43.491Z,82.00
2022-09-21T16:50:16.225Z,81.70
2022-09-21T16:52:47.064Z,81.30
2022-09-21T16:55:15.649Z,81.60
2022-09-21T16:57:46.153Z,81.80
2022-09-21T17:00:14.575Z,81.60
2022-09-21T17:02:42.829Z,81.90
2022-09-21T17:05:10.149Z,82.50
2022-09-21T17:07:37.276Z,81.40
2022-09-21T17:10:13.116Z,81.20
2022-09-21T17:12:39.979Z,82.20
2022-09-21T17:15:08.205Z,81.60
2022-09-21T17:17:35.123Z,81.20
2022-09-21T17:20:06.999Z,82.50
2022-09-21T17:22:33.836Z,81.70
2022-09-21T17:25:00.610Z,82.00
2022-09-21T17:27:29.254Z,82.60
2022-09-21T17:29:56.569Z,82.20
2022-09-21T17:32:24.619Z,82.90
2022-09-21T17:35:01.926Z,84.80
2022-09-21T17:37:29.420Z,82.60
2022-09-21T17:39:56.208Z,82.90
2022-09-21T17:42:24.683Z,82.30
2022-09-21T17:45:08.036Z,82.60
2022-09-21T17:47:35.131Z,83.10
2022-09-21T17:50:13.868Z,82.50
2022-09-21T17:53:00.749Z,82.00
2022-09-21T17:55:28.213Z,82.80
2022-09-21T17:58:19.328Z,82.60
2022-09-21T18:01:04.293Z,81.90
2022-09-21T18:03:36.024Z,81.90
2022-09-21T18:06:03.590Z,81.70
2022-09-21T18:08:33.959Z,82.90
2022-09-21T18:11:17.369Z,82.60
2022-09-21T18:13:59.544Z,82.60
2022-09-21T18:16:41.797Z,82.30
2022-09-21T18:19:50.684Z,83.30
2022-09-21T18:22:24.017Z,83.00
2022-09-21T18:24:53.492Z,82.80
2022-09-21T18:27:21.531Z,83.10
2022-09-21T18:29:48.660Z,83.10
2022-09-21T18:32:34.248Z,83.60
2022-09-21T18:35:28.393Z,84.80
2022-09-21T18:38:14.085Z,84.60
2022-09-21T18:41:11.278Z,85.40
2022-09-21T18:44:04.313Z,84.00
2022-09-21T18:46:51.241Z,84.50
2022-09-21T18:49:54.757Z,84.10
2022-09-21T18:52:41.451Z,85.20
2022-09-21T18:55:23.823Z,85.40
2022-09-21T18:57:51.468Z,86.10
2022-09-21T19:00:19.165Z,85.60
2022-09-21T19:03:12.283Z,86.20
2022-09-21T19:05:33.471Z,85.50
2022-09-21T19:08:18.752Z,85.10
2022-09-21T19:10:50.958Z,86.50
2022-09-21T19:13:40.283Z,85.20
2022-09-21T19:16:23.538Z,85.30
2022-09-21T19:18:59.238Z,87.10
2022-09-21T19:21:36.542Z,88.10
2022-09-21T19:24:13.396Z,88.80
2022-09-21T19:26:52.148Z,87.10
2022-09-21T19:29:24.700Z,86.80
2022-09-21T19:31:51.629Z,87.40
2022-09-21T19:34:19.657Z,88.00
2022-09-21T19:36:47.503Z,88.60
2022-09-21T19:39:15.141Z,89.00
2022-09-21T19:41:48.254Z,89.90
2022-09-21T19:44:50.644Z,89.80
2022-09-21T19:47:53.743Z,87.90
2022-09-21T19:50:26.122Z,89.20
2022-09-21T19:53:13.455Z,89.90
2022-09-21T19:56:01.288Z,89.00
2022-09-21T19:58:46.653Z,90.10
2022-09-21T20:01:18.042Z,89.60
2022-09-21T20:03:46.707Z,89.10
2022-09-21T20:06:26.990Z,90.60
2022-09-21T20:09:15.050Z,90.70
2022-09-21T20:11:50.714Z,91.00
2022-09-21T20:14:20.564Z,90.20
2022-09-21T20:16:55.318Z,90.80
2022-09-21T20:19:33.976Z,90.30
2022-09-21T20:22:13.578Z,90.40
2022-09-21T20:24:49.566Z,90.60
2022-09-21T20:27:50.906Z,91.00
2022-09-21T20:30:21.145Z,90.20
2022-09-21T20:32:54.504Z,90.70
2022-09-21T20:35:24.390Z,90.90
2022-09-21T20:37:51.820Z,90.80
2022-09-21T20:40:20.383Z,90.60
2022-09-21T20:42:47.244Z,91.10
2022-09-21T20:45:14.232Z,91.20
2022-09-21T20:47:41.275Z,91.50
2022-09-21T20:50:11.757Z,91.50
2022-09-21T20:52:41.498Z,91.00
2022-09-21T20:55:10.565Z,91.30
2022-09-21T20:57:37.861Z,91.50
2022-09-21T21:00:10.483Z,91.80
2022-09-21T21:02:37.287Z,91.40
2022-09-21T21:05:05.612Z,91.60
2022-09-21T21:07:32.546Z,91.60
2022-09-21T21:09:59.387Z,91.70
2022-09-21T21:12:26.178Z,92.10
2022-09-21T21:14:53.149Z,91.60
2022-09-21T21:17:19.983Z,91.70
2022-09-21T21:19:46.890Z,91.90
2022-09-21T21:22:13.987Z,91.10
2022-09-21T21:24:40.971Z,91.00
2022-09-21T21:27:21.097Z,90.60
2022-09-21T21:29:50.400Z,90.70
2022-09-21T21:32:23.846Z,91.30
2022-09-21T21:34:51.839Z,91.30
2022-09-21T21:37:20.172Z,91.40
2022-09-21T21:39:47.717Z,91.70
2022-09-21T21:42:14.666Z,91.50
2022-09-21T21:44:41.776Z,91.50
2022-09-21T21:47:37.707Z,91.80
2022-09-21T21:49:55.455Z,91.80
2022-09-21T21:52:22.363Z,91.90
2022-09-21T21:54:50.091Z,92.00
2022-09-21T21:57:17.061Z,92.00
2022-09-21T21:59:43.863Z,92.00
2022-09-21T22:02:10.986Z,92.00
2022-09-21T22:04:38.838Z,92.20
2022-09-21T22:07:06.060Z,92.20
2022-09-21T22:09:33.210Z,92.80
2022-09-21T22:12:02.011Z,92.20
2022-09-21T22:14:28.999Z,92.30
2022-09-21T22:16:57.742Z,92.40
2022-09-21T22:19:24.574Z,92.70
2022-09-21T22:21:54.419Z,92.60
2022-09-21T22:24:22.413Z,92.40
2022-09-21T22:26:49.420Z,92.40
2022-09-21T22:29:20.307Z,92.60
2022-09-21T22:31:48.988Z,92.40
2022-09-21T22:34:16.651Z,92.50
2022-09-21T22:36:44.144Z,92.40
2022-09-21T22:39:12.215Z,92.70
2022-09-21T22:41:41.221Z,92.70
2022-09-21T22:44:10.118Z,92.50
2022-09-21T22:46:37.720Z,92.20
2022-09-21T22:49:04.899Z,92.60
2022-09-21T22:51:31.750Z,92.20
2022-09-21T22:53:58.855Z,92.20
2022-09-21T22:56:28.483Z,92.20
2022-09-21T22:58:57.472Z,92.20
2022-09-21T23:01:28.202Z,92.40
2022-09-21T23:03:59.459Z,92.50
2022-09-21T23:06:29.174Z,92.60
2022-09-21T23:08:57.740Z,92.80
2022-09-21T23:11:27.365Z,92.80
2022-09-21T23:13:55.607Z,92.80
2022-09-21T23:16:23.597Z,93.10
2022-09-21T23:18:51.275Z,93.20
2022-09-21T23:21:21.480Z,92.90
2022-09-21T23:23:49.334Z,93.00
2022-09-21T23:26:19.925Z,92.60
2022-09-21T23:28:52.074Z,92.60
2022-09-21T23:31:19.427Z,92.40
2022-09-21T23:33:50.103Z,92.40
2022-09-21T23:36:19.950Z,93.00
2022-09-21T23:38:47.803Z,92.80
2022-09-21T23:41:20.383Z,93.00
2022-09-21T23:43:47.780Z,93.00
2022-09-21T23:46:17.758Z,92.80
2022-09-21T23:48:45.118Z,92.80
2022-09-21T23:51:12.448Z,93.00
2022-09-21T23:53:40.362Z,93.00
2022-09-21T23:56:08.823Z,93.20
2022-09-21T23:58:35.836Z,93.30
